sensor_id;sensor_type;location;lat;lon;timestamp;P1;durP1;ratioP1;P2;durP2;ratioP2
6547;SDS011;3307;52.416;16.862;2022-11-09T00:02:02;24.90;;;22.20;;
6547;SDS011;3307;52.416;16.862;2022-11-09T00:04:29;26.80;;;22.92;;
6547;SDS011;3307;52.416;16.862;2022-11-09T00:06:54;30.57;;;22.60;;
6547;SDS011;3307;52.416;16.862;2022-11-09T00:09:21;26.33;;;23.40;;
6547;SDS011;3307;52.416;16.862;2022-11-09T00:11:47;28.35;;;23.00;;
6547;SDS011;3307;52.416;16.862;2022-11-09T00:14:16;28.17;;;23.13;;
6547;SDS011;3307;52.416;16.862;2022-11-09T00:16:41;29.27;;;23.67;;
6547;SDS011;3307;52.416;16.862;2022-11-09T00:19:07;25.17;;;22.47;;
6547;SDS011;3307;52.416;16.862;2022-11-09T00:21:32;26.07;;;23.17;;
6547;SDS011;3307;52.416;16.862;2022-11-09T00:23:58;29.23;;;22.50;;
6547;SDS011;3307;52.416;16.862;2022-11-09T00:26:23;27.30;;;22.47;;
6547;SDS011;3307;52.416;16.862;2022-11-09T00:28:49;30.63;;;23.47;;
6547;SDS011;3307;52.416;16.862;2022-11-09T00:31:16;23.77;;;21.23;;
6547;SDS011;3307;52.416;16.862;2022-11-09T00:33:45;25.42;;;21.88;;
6547;SDS011;3307;52.416;16.862;2022-11-09T00:36:11;27.55;;;23.40;;
6547;SDS011;3307;52.416;16.862;2022-11-09T00:38:37;27.63;;;22.90;;
6547;SDS011;3307;52.416;16.862;2022-11-09T00:41:07;27.77;;;22.00;;
6547;SDS011;3307;52.416;16.862;2022-11-09T00:43:34;23.45;;;20.17;;
6547;SDS011;3307;52.416;16.862;2022-11-09T00:45:59;26.00;;;22.23;;
6547;SDS011;3307;52.416;16.862;2022-11-09T00:48:25;30.23;;;22.13;;
6547;SDS011;3307;52.416;16.862;2022-11-09T00:50:51;27.10;;;22.87;;
6547;SDS011;3307;52.416;16.862;2022-11-09T00:53:17;24.27;;;20.50;;
6547;SDS011;3307;52.416;16.862;2022-11-09T00:55:51;26.73;;;21.98;;
6547;SDS011;3307;52.416;16.862;2022-11-09T00:58:20;27.67;;;22.20;;
6547;SDS011;3307;52.416;16.862;2022-11-09T01:00:46;26.20;;;21.53;;
6547;SDS011;3307;52.416;16.862;2022-11-09T01:03:11;27.47;;;22.90;;
6547;SDS011;3307;52.416;16.862;2022-11-09T01:05:37;25.53;;;21.90;;
6547;SDS011;3307;52.416;16.862;2022-11-09T01:08:03;27.40;;;22.05;;
6547;SDS011;3307;52.416;16.862;2022-11-09T01:10:29;27.52;;;22.15;;
6547;SDS011;3307;52.416;16.862;2022-11-09T01:12:55;23.80;;;21.27;;
6547;SDS011;3307;52.416;16.862;2022-11-09T01:15:20;28.03;;;22.00;;
6547;SDS011;3307;52.416;16.862;2022-11-09T01:17:46;25.20;;;22.20;;
6547;SDS011;3307;52.416;16.862;2022-11-09T01:20:11;28.77;;;23.90;;
6547;SDS011;3307;52.416;16.862;2022-11-09T01:22:37;24.77;;;21.20;;
6547;SDS011;3307;52.416;16.862;2022-11-09T01:25:03;27.53;;;20.60;;
6547;SDS011;3307;52.416;16.862;2022-11-09T01:27:28;25.00;;;22.37;;
6547;SDS011;3307;52.416;16.862;2022-11-09T01:29:54;26.60;;;23.17;;
6547;SDS011;3307;52.416;16.862;2022-11-09T01:32:19;25.87;;;21.63;;
6547;SDS011;3307;52.416;16.862;2022-11-09T01:34:45;26.33;;;21.57;;
6547;SDS011;3307;52.416;16.862;2022-11-09T01:37:10;27.13;;;22.10;;
6547;SDS011;3307;52.416;16.862;2022-11-09T01:39:35;25.63;;;22.33;;
6547;SDS011;3307;52.416;16.862;2022-11-09T01:42:01;29.37;;;22.67;;
6547;SDS011;3307;52.416;16.862;2022-11-09T01:44:26;29.00;;;22.80;;
6547;SDS011;3307;52.416;16.862;2022-11-09T01:47:05;28.70;;;22.20;;
6547;SDS011;3307;52.416;16.862;2022-11-09T01:49:38;27.45;;;23.25;;
6547;SDS011;3307;52.416;16.862;2022-11-09T01:54:41;24.48;;;21.40;;
6547;SDS011;3307;52.416;16.862;2022-11-09T01:57:10;26.65;;;22.00;;
6547;SDS011;3307;52.416;16.862;2022-11-09T01:59:40;30.48;;;23.90;;
6547;SDS011;3307;52.416;16.862;2022-11-09T02:02:08;32.20;;;21.67;;
6547;SDS011;3307;52.416;16.862;2022-11-09T02:04:35;28.27;;;22.40;;
6547;SDS011;3307;52.416;16.862;2022-11-09T02:07:07;28.33;;;23.65;;
6547;SDS011;3307;52.416;16.862;2022-11-09T02:12:09;29.48;;;22.45;;
6547;SDS011;3307;52.416;16.862;2022-11-09T02:14:34;29.60;;;23.97;;
6547;SDS011;3307;52.416;16.862;2022-11-09T02:17:01;25.65;;;22.85;;
6547;SDS011;3307;52.416;16.862;2022-11-09T02:19:26;29.10;;;23.77;;
6547;SDS011;3307;52.416;16.862;2022-11-09T02:21:52;28.90;;;23.63;;
6547;SDS011;3307;52.416;16.862;2022-11-09T02:24:18;30.60;;;23.20;;
6547;SDS011;3307;52.416;16.862;2022-11-09T02:26:44;28.07;;;23.37;;
6547;SDS011;3307;52.416;16.862;2022-11-09T02:29:12;30.15;;;23.15;;
6547;SDS011;3307;52.416;16.862;2022-11-09T02:31:42;30.88;;;22.92;;
6547;SDS011;3307;52.416;16.862;2022-11-09T02:34:11;27.52;;;23.05;;
6547;SDS011;3307;52.416;16.862;2022-11-09T02:36:38;32.28;;;24.38;;
6547;SDS011;3307;52.416;16.862;2022-11-09T02:39:04;30.30;;;23.00;;
6547;SDS011;3307;52.416;16.862;2022-11-09T02:41:30;29.70;;;22.17;;
6547;SDS011;3307;52.416;16.862;2022-11-09T02:43:56;25.83;;;21.55;;
6547;SDS011;3307;52.416;16.862;2022-11-09T02:46:32;30.87;;;22.90;;
6547;SDS011;3307;52.416;16.862;2022-11-09T02:49:00;30.13;;;22.48;;
6547;SDS011;3307;52.416;16.862;2022-11-09T02:51:25;29.87;;;22.30;;
6547;SDS011;3307;52.416;16.862;2022-11-09T02:53:51;29.20;;;22.50;;
6547;SDS011;3307;52.416;16.862;2022-11-09T02:56:16;33.03;;;23.77;;
6547;SDS011;3307;52.416;16.862;2022-11-09T02:58:42;25.33;;;21.37;;
6547;SDS011;3307;52.416;16.862;2022-11-09T03:01:07;28.10;;;22.53;;
6547;SDS011;3307;52.416;16.862;2022-11-09T03:03:32;28.10;;;22.93;;
6547;SDS011;3307;52.416;16.862;2022-11-09T03:05:58;29.53;;;23.17;;
6547;SDS011;3307;52.416;16.862;2022-11-09T03:08:23;29.27;;;22.93;;
6547;SDS011;3307;52.416;16.862;2022-11-09T03:10:49;31.97;;;22.93;;
6547;SDS011;3307;52.416;16.862;2022-11-09T03:13:14;27.60;;;21.10;;
6547;SDS011;3307;52.416;16.862;2022-11-09T03:15:39;26.77;;;21.20;;
6547;SDS011;3307;52.416;16.862;2022-11-09T03:18:05;27.20;;;22.30;;
6547;SDS011;3307;52.416;16.862;2022-11-09T03:20:30;27.47;;;20.97;;
6547;SDS011;3307;52.416;16.862;2022-11-09T03:22:56;33.30;;;23.47;;
6547;SDS011;3307;52.416;16.862;2022-11-09T03:25:22;28.27;;;22.17;;
6547;SDS011;3307;52.416;16.862;2022-11-09T03:27:48;28.33;;;22.80;;
6547;SDS011;3307;52.416;16.862;2022-11-09T03:30:13;30.50;;;23.33;;
6547;SDS011;3307;52.416;16.862;2022-11-09T03:32:39;32.23;;;23.60;;
6547;SDS011;3307;52.416;16.862;2022-11-09T03:35:04;28.03;;;22.60;;
6547;SDS011;3307;52.416;16.862;2022-11-09T03:37:30;26.67;;;22.10;;
6547;SDS011;3307;52.416;16.862;2022-11-09T03:39:55;28.07;;;21.77;;
6547;SDS011;3307;52.416;16.862;2022-11-09T03:42:21;25.00;;;22.20;;
6547;SDS011;3307;52.416;16.862;2022-11-09T03:44:46;26.20;;;23.20;;
6547;SDS011;3307;52.416;16.862;2022-11-09T03:47:11;29.00;;;22.90;;
6547;SDS011;3307;52.416;16.862;2022-11-09T03:49:37;25.70;;;21.57;;
6547;SDS011;3307;52.416;16.862;2022-11-09T03:52:02;27.53;;;22.07;;
6547;SDS011;3307;52.416;16.862;2022-11-09T03:54:28;27.53;;;22.30;;
6547;SDS011;3307;52.416;16.862;2022-11-09T03:56:53;29.63;;;21.80;;
6547;SDS011;3307;52.416;16.862;2022-11-09T03:59:18;30.97;;;22.27;;
6547;SDS011;3307;52.416;16.862;2022-11-09T04:01:44;25.00;;;20.40;;
6547;SDS011;3307;52.416;16.862;2022-11-09T04:04:09;30.67;;;22.00;;
6547;SDS011;3307;52.416;16.862;2022-11-09T04:06:34;30.50;;;22.70;;
6547;SDS011;3307;52.416;16.862;2022-11-09T04:09:00;26.10;;;22.07;;
6547;SDS011;3307;52.416;16.862;2022-11-09T04:11:25;27.20;;;21.80;;
6547;SDS011;3307;52.416;16.862;2022-11-09T04:13:51;28.63;;;20.80;;
6547;SDS011;3307;52.416;16.862;2022-11-09T04:16:16;31.53;;;23.03;;
6547;SDS011;3307;52.416;16.862;2022-11-09T04:18:41;31.17;;;23.50;;
6547;SDS011;3307;52.416;16.862;2022-11-09T04:21:07;30.47;;;21.90;;
6547;SDS011;3307;52.416;16.862;2022-11-09T04:23:32;28.00;;;21.27;;
6547;SDS011;3307;52.416;16.862;2022-11-09T04:25:58;26.90;;;21.70;;
6547;SDS011;3307;52.416;16.862;2022-11-09T04:28:23;30.00;;;22.07;;
6547;SDS011;3307;52.416;16.862;2022-11-09T04:30:49;26.57;;;20.90;;
6547;SDS011;3307;52.416;16.862;2022-11-09T04:33:14;27.93;;;20.97;;
6547;SDS011;3307;52.416;16.862;2022-11-09T04:35:40;29.43;;;20.67;;
6547;SDS011;3307;52.416;16.862;2022-11-09T04:38:05;27.47;;;20.67;;
6547;SDS011;3307;52.416;16.862;2022-11-09T04:40:33;29.70;;;22.25;;
6547;SDS011;3307;52.416;16.862;2022-11-09T04:42:59;30.95;;;22.92;;
6547;SDS011;3307;52.416;16.862;2022-11-09T04:45:26;30.48;;;22.40;;
6547;SDS011;3307;52.416;16.862;2022-11-09T04:47:55;30.03;;;23.23;;
6547;SDS011;3307;52.416;16.862;2022-11-09T04:50:24;29.40;;;22.02;;
6547;SDS011;3307;52.416;16.862;2022-11-09T04:52:49;32.23;;;23.43;;
6547;SDS011;3307;52.416;16.862;2022-11-09T04:55:15;29.60;;;22.90;;
6547;SDS011;3307;52.416;16.862;2022-11-09T04:57:40;31.90;;;25.90;;
6547;SDS011;3307;52.416;16.862;2022-11-09T05:00:06;27.70;;;21.53;;
6547;SDS011;3307;52.416;16.862;2022-11-09T05:02:32;33.10;;;23.27;;
6547;SDS011;3307;52.416;16.862;2022-11-09T05:04:57;30.50;;;23.23;;
6547;SDS011;3307;52.416;16.862;2022-11-09T05:07:22;29.63;;;22.40;;
6547;SDS011;3307;52.416;16.862;2022-11-09T05:09:48;31.17;;;24.33;;
6547;SDS011;3307;52.416;16.862;2022-11-09T05:12:13;31.80;;;25.63;;
6547;SDS011;3307;52.416;16.862;2022-11-09T05:14:39;28.13;;;23.20;;
6547;SDS011;3307;52.416;16.862;2022-11-09T05:17:04;30.70;;;23.30;;
6547;SDS011;3307;52.416;16.862;2022-11-09T05:19:30;32.70;;;22.83;;
6547;SDS011;3307;52.416;16.862;2022-11-09T05:21:56;36.27;;;24.60;;
6547;SDS011;3307;52.416;16.862;2022-11-09T05:24:41;30.75;;;23.73;;
6547;SDS011;3307;52.416;16.862;2022-11-09T05:27:06;31.23;;;23.80;;
6547;SDS011;3307;52.416;16.862;2022-11-09T05:29:32;31.20;;;25.70;;
6547;SDS011;3307;52.416;16.862;2022-11-09T05:31:57;35.17;;;25.57;;
6547;SDS011;3307;52.416;16.862;2022-11-09T05:34:22;28.23;;;23.13;;
6547;SDS011;3307;52.416;16.862;2022-11-09T05:36:48;35.40;;;26.23;;
6547;SDS011;3307;52.416;16.862;2022-11-09T05:39:13;33.03;;;24.83;;
6547;SDS011;3307;52.416;16.862;2022-11-09T05:41:38;36.37;;;25.90;;
6547;SDS011;3307;52.416;16.862;2022-11-09T05:44:04;35.67;;;26.20;;
6547;SDS011;3307;52.416;16.862;2022-11-09T05:46:29;31.63;;;26.83;;
6547;SDS011;3307;52.416;16.862;2022-11-09T05:48:56;35.53;;;24.98;;
6547;SDS011;3307;52.416;16.862;2022-11-09T05:51:22;34.47;;;26.60;;
6547;SDS011;3307;52.416;16.862;2022-11-09T05:53:47;36.47;;;26.83;;
6547;SDS011;3307;52.416;16.862;2022-11-09T05:56:13;32.53;;;25.47;;
6547;SDS011;3307;52.416;16.862;2022-11-09T05:58:39;32.88;;;26.00;;
6547;SDS011;3307;52.416;16.862;2022-11-09T06:01:06;38.72;;;27.33;;
6547;SDS011;3307;52.416;16.862;2022-11-09T06:03:38;34.83;;;26.33;;
6547;SDS011;3307;52.416;16.862;2022-11-09T06:06:06;38.42;;;27.30;;
6547;SDS011;3307;52.416;16.862;2022-11-09T06:08:32;37.33;;;26.55;;
6547;SDS011;3307;52.416;16.862;2022-11-09T06:10:58;38.33;;;29.13;;
6547;SDS011;3307;52.416;16.862;2022-11-09T06:13:25;34.97;;;28.58;;
6547;SDS011;3307;52.416;16.862;2022-11-09T06:15:55;37.20;;;29.20;;
6547;SDS011;3307;52.416;16.862;2022-11-09T06:18:22;40.25;;;29.08;;
6547;SDS011;3307;52.416;16.862;2022-11-09T06:20:55;34.97;;;27.30;;
6547;SDS011;3307;52.416;16.862;2022-11-09T06:23:21;36.90;;;28.40;;
6547;SDS011;3307;52.416;16.862;2022-11-09T06:26:00;39.30;;;28.30;;
6547;SDS011;3307;52.416;16.862;2022-11-09T06:28:27;38.88;;;28.23;;
6547;SDS011;3307;52.416;16.862;2022-11-09T06:30:56;35.13;;;27.13;;
6547;SDS011;3307;52.416;16.862;2022-11-09T06:33:22;37.03;;;26.98;;
6547;SDS011;3307;52.416;16.862;2022-11-09T06:35:47;34.10;;;26.30;;
6547;SDS011;3307;52.416;16.862;2022-11-09T06:38:12;32.93;;;26.10;;
6547;SDS011;3307;52.416;16.862;2022-11-09T06:40:38;32.83;;;25.67;;
6547;SDS011;3307;52.416;16.862;2022-11-09T06:43:03;32.83;;;25.20;;
6547;SDS011;3307;52.416;16.862;2022-11-09T06:45:29;34.87;;;25.80;;
6547;SDS011;3307;52.416;16.862;2022-11-09T06:47:55;34.93;;;27.00;;
6547;SDS011;3307;52.416;16.862;2022-11-09T06:50:24;34.63;;;26.70;;
6547;SDS011;3307;52.416;16.862;2022-11-09T06:52:54;33.15;;;25.30;;
6547;SDS011;3307;52.416;16.862;2022-11-09T06:55:22;35.92;;;26.17;;
6547;SDS011;3307;52.416;16.862;2022-11-09T06:57:47;37.53;;;27.00;;
6547;SDS011;3307;52.416;16.862;2022-11-09T07:00:13;39.27;;;28.53;;
6547;SDS011;3307;52.416;16.862;2022-11-09T07:02:39;36.70;;;25.63;;
6547;SDS011;3307;52.416;16.862;2022-11-09T07:05:04;34.67;;;26.13;;
6547;SDS011;3307;52.416;16.862;2022-11-09T07:07:30;38.20;;;26.97;;
6547;SDS011;3307;52.416;16.862;2022-11-09T07:09:55;36.03;;;27.60;;
6547;SDS011;3307;52.416;16.862;2022-11-09T07:12:22;34.80;;;26.88;;
6547;SDS011;3307;52.416;16.862;2022-11-09T07:14:47;36.70;;;27.47;;
6547;SDS011;3307;52.416;16.862;2022-11-09T07:17:13;35.87;;;26.43;;
6547;SDS011;3307;52.416;16.862;2022-11-09T07:19:38;37.43;;;27.00;;
6547;SDS011;3307;52.416;16.862;2022-11-09T07:22:03;37.17;;;26.97;;
6547;SDS011;3307;52.416;16.862;2022-11-09T07:24:29;33.27;;;26.00;;
6547;SDS011;3307;52.416;16.862;2022-11-09T07:26:54;32.53;;;27.40;;
6547;SDS011;3307;52.416;16.862;2022-11-09T07:29:19;36.97;;;27.40;;
6547;SDS011;3307;52.416;16.862;2022-11-09T07:31:45;36.97;;;27.73;;
6547;SDS011;3307;52.416;16.862;2022-11-09T07:34:10;41.10;;;28.30;;
6547;SDS011;3307;52.416;16.862;2022-11-09T07:36:36;41.30;;;29.10;;
6547;SDS011;3307;52.416;16.862;2022-11-09T07:39:01;33.30;;;28.00;;
6547;SDS011;3307;52.416;16.862;2022-11-09T07:41:27;37.00;;;28.00;;
6547;SDS011;3307;52.416;16.862;2022-11-09T07:43:52;35.47;;;28.00;;
6547;SDS011;3307;52.416;16.862;2022-11-09T07:46:18;36.87;;;28.60;;
6547;SDS011;3307;52.416;16.862;2022-11-09T07:48:43;38.40;;;30.40;;
6547;SDS011;3307;52.416;16.862;2022-11-09T07:51:09;36.20;;;29.37;;
6547;SDS011;3307;52.416;16.862;2022-11-09T07:53:34;35.30;;;27.23;;
6547;SDS011;3307;52.416;16.862;2022-11-09T07:56:00;34.30;;;26.67;;
6547;SDS011;3307;52.416;16.862;2022-11-09T07:58:26;31.05;;;24.25;;
6547;SDS011;3307;52.416;16.862;2022-11-09T08:00:52;28.17;;;24.73;;
6547;SDS011;3307;52.416;16.862;2022-11-09T08:03:18;35.00;;;25.47;;
6547;SDS011;3307;52.416;16.862;2022-11-09T08:05:44;31.38;;;24.92;;
6547;SDS011;3307;52.416;16.862;2022-11-09T08:08:10;33.63;;;26.00;;
6547;SDS011;3307;52.416;16.862;2022-11-09T08:10:36;32.38;;;25.70;;
6547;SDS011;3307;52.416;16.862;2022-11-09T08:13:04;34.28;;;25.63;;
6547;SDS011;3307;52.416;16.862;2022-11-09T08:15:30;31.65;;;26.40;;
6547;SDS011;3307;52.416;16.862;2022-11-09T08:17:57;31.47;;;25.33;;
6547;SDS011;3307;52.416;16.862;2022-11-09T08:20:24;34.00;;;24.70;;
6547;SDS011;3307;52.416;16.862;2022-11-09T08:22:49;31.67;;;25.90;;
6547;SDS011;3307;52.416;16.862;2022-11-09T08:25:14;38.00;;;27.97;;
6547;SDS011;3307;52.416;16.862;2022-11-09T08:27:40;39.90;;;28.43;;
6547;SDS011;3307;52.416;16.862;2022-11-09T08:30:07;31.73;;;26.10;;
6547;SDS011;3307;52.416;16.862;2022-11-09T08:32:43;33.08;;;26.08;;
6547;SDS011;3307;52.416;16.862;2022-11-09T08:35:09;35.13;;;25.83;;
6547;SDS011;3307;52.416;16.862;2022-11-09T08:37:36;33.80;;;26.13;;
6547;SDS011;3307;52.416;16.862;2022-11-09T08:40:02;29.20;;;21.83;;
6547;SDS011;3307;52.416;16.862;2022-11-09T08:42:28;32.13;;;22.73;;
6547;SDS011;3307;52.416;16.862;2022-11-09T08:44:53;33.13;;;22.33;;
6547;SDS011;3307;52.416;16.862;2022-11-09T08:47:19;26.90;;;21.43;;
6547;SDS011;3307;52.416;16.862;2022-11-09T08:49:44;22.47;;;18.20;;
6547;SDS011;3307;52.416;16.862;2022-11-09T08:52:11;24.02;;;18.60;;
6547;SDS011;3307;52.416;16.862;2022-11-09T08:54:37;19.93;;;17.13;;
6547;SDS011;3307;52.416;16.862;2022-11-09T08:57:02;22.07;;;18.57;;
6547;SDS011;3307;52.416;16.862;2022-11-09T08:59:27;19.70;;;16.20;;
6547;SDS011;3307;52.416;16.862;2022-11-09T09:01:53;24.10;;;17.77;;
6547;SDS011;3307;52.416;16.862;2022-11-09T09:04:18;21.03;;;16.23;;
6547;SDS011;3307;52.416;16.862;2022-11-09T09:06:44;22.10;;;17.10;;
6547;SDS011;3307;52.416;16.862;2022-11-09T09:09:09;21.17;;;16.70;;
6547;SDS011;3307;52.416;16.862;2022-11-09T09:11:36;19.47;;;17.37;;
6547;SDS011;3307;52.416;16.862;2022-11-09T09:14:01;19.42;;;16.90;;
6547;SDS011;3307;52.416;16.862;2022-11-09T09:16:27;20.70;;;16.87;;
6547;SDS011;3307;52.416;16.862;2022-11-09T09:18:53;23.10;;;17.77;;
6547;SDS011;3307;52.416;16.862;2022-11-09T09:21:18;22.83;;;17.00;;
6547;SDS011;3307;52.416;16.862;2022-11-09T09:23:45;21.37;;;18.03;;
6547;SDS011;3307;52.416;16.862;2022-11-09T09:26:12;22.50;;;18.27;;
6547;SDS011;3307;52.416;16.862;2022-11-09T09:28:37;23.60;;;18.80;;
6547;SDS011;3307;52.416;16.862;2022-11-09T09:31:03;22.53;;;18.83;;
6547;SDS011;3307;52.416;16.862;2022-11-09T09:33:28;22.30;;;17.57;;
6547;SDS011;3307;52.416;16.862;2022-11-09T09:35:54;20.00;;;17.10;;
6547;SDS011;3307;52.416;16.862;2022-11-09T09:38:21;23.95;;;17.25;;
6547;SDS011;3307;52.416;16.862;2022-11-09T09:41:00;20.43;;;17.40;;
6547;SDS011;3307;52.416;16.862;2022-11-09T09:43:35;19.42;;;16.35;;
6547;SDS011;3307;52.416;16.862;2022-11-09T09:46:05;20.13;;;16.83;;
6547;SDS011;3307;52.416;16.862;2022-11-09T09:48:41;23.10;;;17.25;;
6547;SDS011;3307;52.416;16.862;2022-11-09T09:51:16;21.75;;;16.63;;
6547;SDS011;3307;52.416;16.862;2022-11-09T09:53:46;19.92;;;16.90;;
6547;SDS011;3307;52.416;16.862;2022-11-09T09:56:16;19.50;;;17.08;;
6547;SDS011;3307;52.416;16.862;2022-11-09T09:58:45;18.50;;;15.93;;
6547;SDS011;3307;52.416;16.862;2022-11-09T10:01:14;22.08;;;17.10;;
6547;SDS011;3307;52.416;16.862;2022-11-09T10:03:45;19.55;;;17.02;;
6547;SDS011;3307;52.416;16.862;2022-11-09T10:08:50;18.42;;;15.65;;
6547;SDS011;3307;52.416;16.862;2022-11-09T10:21:52;20.05;;;16.33;;
6547;SDS011;3307;52.416;16.862;2022-11-09T10:29:50;21.83;;;16.92;;
6547;SDS011;3307;52.416;16.862;2022-11-09T10:32:19;19.37;;;16.00;;
6547;SDS011;3307;52.416;16.862;2022-11-09T10:42:32;17.98;;;15.82;;
6547;SDS011;3307;52.416;16.862;2022-11-09T10:44:58;19.50;;;16.40;;
6547;SDS011;3307;52.416;16.862;2022-11-09T10:47:48;18.65;;;16.67;;
6547;SDS011;3307;52.416;16.862;2022-11-09T11:01:02;18.10;;;15.50;;
6547;SDS011;3307;52.416;16.862;2022-11-09T11:03:28;20.27;;;16.55;;
6547;SDS011;3307;52.416;16.862;2022-11-09T11:06:00;20.33;;;16.33;;
6547;SDS011;3307;52.416;16.862;2022-11-09T11:08:38;19.73;;;15.00;;
6547;SDS011;3307;52.416;16.862;2022-11-09T11:11:06;17.85;;;14.80;;
6547;SDS011;3307;52.416;16.862;2022-11-09T11:13:37;19.85;;;15.05;;
6547;SDS011;3307;52.416;16.862;2022-11-09T11:16:12;17.20;;;15.40;;
6547;SDS011;3307;52.416;16.862;2022-11-09T11:18:41;18.98;;;15.32;;
6547;SDS011;3307;52.416;16.862;2022-11-09T11:21:12;17.10;;;15.35;;
6547;SDS011;3307;52.416;16.862;2022-11-09T11:23:39;18.08;;;15.55;;
6547;SDS011;3307;52.416;16.862;2022-11-09T11:28:46;17.90;;;14.82;;
6547;SDS011;3307;52.416;16.862;2022-11-09T11:31:14;18.92;;;15.38;;
6547;SDS011;3307;52.416;16.862;2022-11-09T11:33:41;19.23;;;15.77;;
6547;SDS011;3307;52.416;16.862;2022-11-09T11:47:54;18.83;;;14.98;;
6547;SDS011;3307;52.416;16.862;2022-11-09T11:50:45;21.30;;;15.93;;
6547;SDS011;3307;52.416;16.862;2022-11-09T12:07:47;18.73;;;15.05;;
6547;SDS011;3307;52.416;16.862;2022-11-09T12:15:47;15.10;;;13.00;;
6547;SDS011;3307;52.416;16.862;2022-11-09T12:23:53;15.30;;;13.40;;
6547;SDS011;3307;52.416;16.862;2022-11-09T12:26:51;21.48;;;13.25;;
6547;SDS011;3307;52.416;16.862;2022-11-09T12:29:19;16.08;;;14.10;;
6547;SDS011;3307;52.416;16.862;2022-11-09T12:34:44;18.08;;;13.73;;
6547;SDS011;3307;52.416;16.862;2022-11-09T12:37:13;15.43;;;13.82;;
6547;SDS011;3307;52.416;16.862;2022-11-09T12:47:47;15.15;;;12.77;;
6547;SDS011;3307;52.416;16.862;2022-11-09T12:50:13;18.30;;;14.53;;
6547;SDS011;3307;52.416;16.862;2022-11-09T12:52:41;18.83;;;14.27;;
6547;SDS011;3307;52.416;16.862;2022-11-09T12:55:11;18.38;;;15.18;;
6547;SDS011;3307;52.416;16.862;2022-11-09T12:57:38;19.50;;;15.45;;
6547;SDS011;3307;52.416;16.862;2022-11-09T13:00:03;18.50;;;15.53;;
6547;SDS011;3307;52.416;16.862;2022-11-09T13:05:04;20.10;;;15.98;;
6547;SDS011;3307;52.416;16.862;2022-11-09T13:10:22;18.40;;;15.60;;
6547;SDS011;3307;52.416;16.862;2022-11-09T13:12:48;18.33;;;16.38;;
6547;SDS011;3307;52.416;16.862;2022-11-09T13:15:24;22.03;;;17.43;;
6547;SDS011;3307;52.416;16.862;2022-11-09T13:17:58;19.92;;;16.25;;
6547;SDS011;3307;52.416;16.862;2022-11-09T13:22:59;20.80;;;16.63;;
6547;SDS011;3307;52.416;16.862;2022-11-09T13:25:51;23.60;;;16.52;;
6547;SDS011;3307;52.416;16.862;2022-11-09T13:28:39;20.27;;;17.02;;
6547;SDS011;3307;52.416;16.862;2022-11-09T13:31:08;19.25;;;15.73;;
6547;SDS011;3307;52.416;16.862;2022-11-09T13:33:34;20.90;;;15.18;;
6547;SDS011;3307;52.416;16.862;2022-11-09T13:38:31;18.67;;;16.30;;
6547;SDS011;3307;52.416;16.862;2022-11-09T13:43:24;21.83;;;16.40;;
6547;SDS011;3307;52.416;16.862;2022-11-09T13:45:53;19.65;;;16.63;;
6547;SDS011;3307;52.416;16.862;2022-11-09T13:50:55;20.58;;;17.55;;
6547;SDS011;3307;52.416;16.862;2022-11-09T13:55:54;31.58;;;22.75;;
6547;SDS011;3307;52.416;16.862;2022-11-09T13:58:33;28.73;;;21.73;;
6547;SDS011;3307;52.416;16.862;2022-11-09T14:01:01;31.27;;;24.88;;
6547;SDS011;3307;52.416;16.862;2022-11-09T14:03:27;26.07;;;20.87;;
6547;SDS011;3307;52.416;16.862;2022-11-09T14:05:55;25.17;;;21.13;;
6547;SDS011;3307;52.416;16.862;2022-11-09T14:08:30;23.63;;;19.73;;
6547;SDS011;3307;52.416;16.862;2022-11-09T14:11:03;23.80;;;18.38;;
6547;SDS011;3307;52.416;16.862;2022-11-09T14:18:42;22.77;;;17.42;;
6547;SDS011;3307;52.416;16.862;2022-11-09T14:21:41;24.30;;;18.80;;
6547;SDS011;3307;52.416;16.862;2022-11-09T14:29:51;20.63;;;17.73;;
6547;SDS011;3307;52.416;16.862;2022-11-09T14:32:32;23.48;;;18.10;;
6547;SDS011;3307;52.416;16.862;2022-11-09T14:37:53;20.13;;;16.35;;
6547;SDS011;3307;52.416;16.862;2022-11-09T14:42:48;24.40;;;17.30;;
6547;SDS011;3307;52.416;16.862;2022-11-09T14:45:18;20.98;;;17.20;;
6547;SDS011;3307;52.416;16.862;2022-11-09T14:47:45;22.63;;;17.17;;
6547;SDS011;3307;52.416;16.862;2022-11-09T14:50:26;20.10;;;17.25;;
6547;SDS011;3307;52.416;16.862;2022-11-09T14:52:53;20.95;;;16.85;;
6547;SDS011;3307;52.416;16.862;2022-11-09T14:55:20;22.88;;;18.58;;
6547;SDS011;3307;52.416;16.862;2022-11-09T14:57:47;24.48;;;18.70;;
6547;SDS011;3307;52.416;16.862;2022-11-09T15:02:49;28.10;;;20.50;;
6547;SDS011;3307;52.416;16.862;2022-11-09T15:08:16;30.10;;;23.02;;
6547;SDS011;3307;52.416;16.862;2022-11-09T15:10:50;30.23;;;21.95;;
6547;SDS011;3307;52.416;16.862;2022-11-09T15:13:16;28.23;;;21.80;;
6547;SDS011;3307;52.416;16.862;2022-11-09T15:15:48;26.55;;;22.08;;
6547;SDS011;3307;52.416;16.862;2022-11-09T15:18:18;33.03;;;24.30;;
6547;SDS011;3307;52.416;16.862;2022-11-09T15:20:46;35.13;;;26.33;;
6547;SDS011;3307;52.416;16.862;2022-11-09T15:23:22;32.57;;;27.53;;
6547;SDS011;3307;52.416;16.862;2022-11-09T15:26:00;34.17;;;26.90;;
6547;SDS011;3307;52.416;16.862;2022-11-09T15:28:26;33.50;;;26.20;;
6547;SDS011;3307;52.416;16.862;2022-11-09T15:33:19;34.37;;;25.27;;
6547;SDS011;3307;52.416;16.862;2022-11-09T15:36:18;37.03;;;28.88;;
6547;SDS011;3307;52.416;16.862;2022-11-09T15:41:33;31.65;;;25.73;;
6547;SDS011;3307;52.416;16.862;2022-11-09T15:44:00;28.23;;;23.17;;
6547;SDS011;3307;52.416;16.862;2022-11-09T15:46:26;27.40;;;22.73;;
6547;SDS011;3307;52.416;16.862;2022-11-09T15:48:55;29.92;;;24.45;;
6547;SDS011;3307;52.416;16.862;2022-11-09T15:51:22;34.33;;;26.75;;
6547;SDS011;3307;52.416;16.862;2022-11-09T15:53:47;38.00;;;26.33;;
6547;SDS011;3307;52.416;16.862;2022-11-09T15:56:17;36.83;;;28.73;;
6547;SDS011;3307;52.416;16.862;2022-11-09T15:58:47;40.20;;;31.23;;
6547;SDS011;3307;52.416;16.862;2022-11-09T16:01:13;48.92;;;36.47;;
6547;SDS011;3307;52.416;16.862;2022-11-09T16:03:39;53.77;;;38.70;;
6547;SDS011;3307;52.416;16.862;2022-11-09T16:06:04;57.07;;;42.10;;
6547;SDS011;3307;52.416;16.862;2022-11-09T16:08:30;58.37;;;44.47;;
6547;SDS011;3307;52.416;16.862;2022-11-09T16:10:55;57.97;;;45.33;;
6547;SDS011;3307;52.416;16.862;2022-11-09T16:13:21;55.40;;;44.33;;
6547;SDS011;3307;52.416;16.862;2022-11-09T16:15:46;62.80;;;47.17;;
6547;SDS011;3307;52.416;16.862;2022-11-09T16:18:11;60.93;;;46.60;;
6547;SDS011;3307;52.416;16.862;2022-11-09T16:20:37;57.90;;;46.10;;
6547;SDS011;3307;52.416;16.862;2022-11-09T16:23:04;55.78;;;47.17;;
6547;SDS011;3307;52.416;16.862;2022-11-09T16:25:29;57.27;;;46.50;;
6547;SDS011;3307;52.416;16.862;2022-11-09T16:27:55;59.20;;;47.83;;
6547;SDS011;3307;52.416;16.862;2022-11-09T16:30:20;54.90;;;43.63;;
6547;SDS011;3307;52.416;16.862;2022-11-09T16:32:46;59.83;;;46.60;;
6547;SDS011;3307;52.416;16.862;2022-11-09T16:35:11;55.67;;;45.77;;
6547;SDS011;3307;52.416;16.862;2022-11-09T16:37:37;56.93;;;44.93;;
6547;SDS011;3307;52.416;16.862;2022-11-09T16:40:05;52.67;;;44.92;;
6547;SDS011;3307;52.416;16.862;2022-11-09T16:42:33;57.45;;;44.17;;
6547;SDS011;3307;52.416;16.862;2022-11-09T16:45:02;49.10;;;40.63;;
6547;SDS011;3307;52.416;16.862;2022-11-09T16:47:30;52.75;;;42.20;;
6547;SDS011;3307;52.416;16.862;2022-11-09T16:50:01;53.58;;;44.13;;
6547;SDS011;3307;52.416;16.862;2022-11-09T16:52:26;60.37;;;47.17;;
6547;SDS011;3307;52.416;16.862;2022-11-09T16:54:51;66.10;;;46.17;;